Time;durP1;ratioP1;P1;durP2;ratioP2;P2;SDS_P1;SDS_P2;PMS_P1;PMS_P2;Temp;Humidity;BMP_temperature;BMP_pressure;BME280_temperature;BME280_humidity;BME280_pressure;Samples;Min_cycle;Max_cycle;Signal;HPM_P1;HPM_P2
2022/05/11 00:01:29;;;;;;;9.43;5.68;;;19.70;71.10;;;;;;4950045;28;20507;-70
2022/05/11 00:03:57;;;;;;;10.40;5.93;;;19.60;71.20;;;;;;4958237;28;20035;-70
2022/05/11 00:06:25;;;;;;;8.15;5.22;;;19.60;72.10;;;;;;4956936;28;20685;-70
2022/05/11 00:08:55;;;;;;;8.40;5.47;;;19.60;71.70;;;;;;4959920;28;20027;-70
2022/05/11 00:11:23;;;;;;;6.55;4.97;;;19.50;72.00;;;;;;4958020;28;20047;-69
2022/05/11 00:13:49;;;;;;;9.52;6.05;;;19.50;72.10;;;;;;4958939;28;20023;-70
2022/05/11 00:16:15;;;;;;;12.82;7.60;;;19.50;72.20;;;;;;4951156;28;20507;-70
2022/05/11 00:18:41;;;;;;;11.13;7.68;;;19.50;72.40;;;;;;4951894;28;20557;-70
2022/05/11 00:21:08;;;;;;;10.85;6.03;;;19.40;72.50;;;;;;4958007;28;20043;-70
2022/05/11 00:23:34;;;;;;;8.95;5.32;;;19.40;72.80;;;;;;4955802;28;20026;-70
2022/05/11 00:26:00;;;;;;;7.43;5.03;;;19.40;73.10;;;;;;4944155;28;20423;-70
2022/05/11 00:28:26;;;;;;;8.27;5.20;;;19.40;73.10;;;;;;4959164;28;20035;-70
2022/05/11 00:30:52;;;;;;;7.60;5.22;;;19.30;73.20;;;;;;4949751;28;20042;-70
2022/05/11 00:33:18;;;;;;;5.97;4.30;;;19.30;73.30;;;;;;4949989;28;20035;-70
2022/05/11 00:35:45;;;;;;;8.38;5.07;;;19.30;73.70;;;;;;4952499;28;20706;-70
2022/05/11 00:38:12;;;;;;;7.53;4.95;;;19.20;73.90;;;;;;4954141;28;20035;-70
2022/05/11 00:40:48;;;;;;;8.55;4.80;;;19.20;73.80;;;;;;4952478;28;20039;-70
2022/05/11 00:43:24;;;;;;;7.20;4.78;;;19.20;74.10;;;;;;4946737;28;20759;-70
2022/05/11 00:45:50;;;;;;;7.80;5.15;;;19.10;74.40;;;;;;4953199;28;20046;-70
2022/05/11 00:51:13;;;;;;;6.28;4.40;;;19.00;74.80;;;;;;4950562;28;20112;-70
2022/05/11 00:53:43;;;;;;;7.68;5.43;;;19.00;74.90;;;;;;4952288;28;20038;-70
2022/05/11 00:56:09;;;;;;;6.68;4.57;;;19.00;74.70;;;;;;4953300;28;20134;-69
2022/05/11 00:58:48;;;;;;;5.68;4.25;;;19.00;75.00;;;;;;4956223;28;20037;-70
2022/05/11 01:01:14;;;;;;;6.70;4.53;;;19.00;75.10;;;;;;4944463;28;20034;-71
2022/05/11 01:03:46;;;;;;;5.95;4.57;;;18.90;74.90;;;;;;4952999;28;20054;-70
2022/05/11 01:06:12;;;;;;;8.10;4.50;;;18.90;75.10;;;;;;4951569;28;20095;-69
2022/05/11 01:08:39;;;;;;;10.25;4.72;;;18.90;75.30;;;;;;4953477;28;20045;-70
2022/05/11 01:11:07;;;;;;;6.15;4.10;;;18.90;75.40;;;;;;4953214;28;20034;-70
2022/05/11 01:13:35;;;;;;;4.85;3.95;;;18.90;75.50;;;;;;4954567;28;20038;-71
2022/05/11 01:16:01;;;;;;;4.90;4.10;;;18.80;75.80;;;;;;4947124;28;20051;-71
2022/05/11 01:18:29;;;;;;;6.45;4.70;;;18.80;75.90;;;;;;4944895;28;20053;-71
2022/05/11 01:20:55;;;;;;;7.05;4.70;;;18.80;76.20;;;;;;4953233;28;20062;-71
2022/05/11 01:23:21;;;;;;;6.13;4.50;;;18.70;76.10;;;;;;4954865;28;20186;-70
2022/05/11 01:25:47;;;;;;;6.72;4.40;;;18.70;76.00;;;;;;4954713;28;20042;-70
2022/05/11 01:28:16;;;;;;;6.20;4.53;;;18.70;76.10;;;;;;4954548;28;20042;-70
2022/05/11 01:30:48;;;;;;;5.45;4.30;;;18.70;76.10;;;;;;4953420;28;20797;-70
2022/05/11 01:33:22;;;;;;;6.70;4.18;;;18.70;76.10;;;;;;4940699;28;20046;-71
2022/05/11 01:35:52;;;;;;;6.10;3.90;;;18.70;76.40;;;;;;4946118;28;20082;-71
2022/05/11 01:38:18;;;;;;;5.70;3.35;;;18.70;76.60;;;;;;4955834;28;20070;-71
2022/05/11 01:40:44;;;;;;;4.68;4.00;;;18.70;77.00;;;;;;4955962;28;20137;-71
2022/05/11 01:43:20;;;;;;;7.47;4.43;;;18.70;77.50;;;;;;4937493;28;20089;-71
2022/05/11 01:45:46;;;;;;;8.07;4.07;;;18.70;77.80;;;;;;4952773;28;20035;-70
2022/05/11 01:48:12;;;;;;;5.18;3.90;;;18.60;77.90;;;;;;4948030;28;20149;-70
2022/05/11 01:50:38;;;;;;;5.43;4.38;;;18.60;78.20;;;;;;4946759;28;20031;-70
2022/05/11 01:53:05;;;;;;;7.57;4.82;;;18.50;78.10;;;;;;4945833;28;20827;-71
2022/05/11 01:55:31;;;;;;;5.97;4.40;;;18.50;78.10;;;;;;4952446;28;20035;-71
2022/05/11 01:57:57;;;;;;;6.28;3.97;;;18.50;78.00;;;;;;4953220;28;20047;-70
2022/05/11 02:00:23;;;;;;;6.30;4.45;;;18.50;78.30;;;;;;4955079;28;20054;-70
2022/05/11 02:02:49;;;;;;;5.78;4.05;;;18.50;78.50;;;;;;4960055;28;20042;-70
2022/05/11 02:07:59;;;;;;;5.90;4.30;;;18.40;78.80;;;;;;4951404;28;20134;-71
2022/05/11 02:10:26;;;;;;;7.35;3.83;;;18.40;78.90;;;;;;4952178;28;20037;-71
2022/05/11 02:12:53;;;;;;;4.55;4.00;;;18.50;79.20;;;;;;4955600;28;20119;-70
2022/05/11 02:15:19;;;;;;;5.72;3.92;;;18.40;79.10;;;;;;4952462;28;20848;-70
2022/05/11 02:17:45;;;;;;;4.32;3.92;;;18.40;79.10;;;;;;4936462;28;20699;-70
2022/05/11 02:20:14;;;;;;;5.13;4.07;;;18.40;79.10;;;;;;4942637;28;20038;-70
2022/05/11 02:22:41;;;;;;;5.35;3.85;;;18.40;79.30;;;;;;4955907;28;20031;-70
2022/05/11 02:25:08;;;;;;;5.88;4.78;;;18.30;79.00;;;;;;4962325;28;20031;-71
2022/05/11 02:27:34;;;;;;;5.82;4.70;;;18.40;78.90;;;;;;4957906;28;20085;-71
2022/05/11 02:30:01;;;;;;;7.10;4.43;;;18.30;79.00;;;;;;4961412;28;20026;-70
2022/05/11 02:32:27;;;;;;;6.97;4.72;;;18.30;79.30;;;;;;4953771;28;20500;-70
2022/05/11 02:37:39;;;;;;;5.65;4.32;;;18.30;79.60;;;;;;4959541;28;20038;-71
2022/05/11 02:40:06;;;;;;;5.78;4.60;;;18.20;79.80;;;;;;4956835;28;20097;-71
2022/05/11 02:42:31;;;;;;;5.43;4.32;;;18.20;80.00;;;;;;4955545;28;20045;-71
2022/05/11 02:44:57;;;;;;;7.97;4.75;;;18.20;80.50;;;;;;4954321;28;20046;-71
2022/05/11 02:47:23;;;;;;;7.90;4.57;;;18.20;80.70;;;;;;4956520;28;20035;-71
2022/05/11 02:49:49;;;;;;;8.52;4.82;;;18.20;80.90;;;;;;4949863;28;20043;-70
2022/05/11 02:52:15;;;;;;;5.80;4.13;;;18.10;81.00;;;;;;4959984;28;20921;-70
2022/05/11 02:54:41;;;;;;;9.30;4.65;;;18.10;81.10;;;;;;4962426;28;20525;-71
2022/05/11 02:57:07;;;;;;;5.72;4.70;;;18.10;81.40;;;;;;4959268;28;20043;-71
2022/05/11 02:59:33;;;;;;;8.90;5.22;;;18.10;82.00;;;;;;4957845;28;20049;-70
2022/05/11 03:01:59;;;;;;;5.38;4.63;;;18.00;82.20;;;;;;4964951;28;20854;-71
2022/05/11 03:04:25;;;;;;;7.57;5.13;;;18.00;82.30;;;;;;4954449;28;20155;-71
2022/05/11 03:06:51;;;;;;;7.00;5.53;;;18.10;82.30;;;;;;4958811;28;20067;-70
2022/05/11 03:09:17;;;;;;;5.32;4.82;;;18.00;82.60;;;;;;4954848;28;20393;-70
2022/05/11 03:11:44;;;;;;;5.50;4.88;;;18.00;83.70;;;;;;4949718;28;20124;-70
2022/05/11 03:14:11;;;;;;;10.07;5.03;;;18.00;84.30;;;;;;4960579;28;20035;-70
2022/05/11 03:16:37;;;;;;;6.25;5.43;;;18.00;84.20;;;;;;4960428;28;20090;-70
2022/05/11 03:19:03;;;;;;;6.18;5.03;;;17.90;84.20;;;;;;4960284;28;20458;-70
2022/05/11 03:21:29;;;;;;;5.63;4.78;;;18.00;84.60;;;;;;4959492;28;20046;-71
2022/05/11 03:23:55;;;;;;;5.70;5.15;;;17.90;85.10;;;;;;4949729;28;20031;-70
2022/05/11 03:26:21;;;;;;;6.03;5.43;;;17.90;85.40;;;;;;4953907;28;20571;-70
2022/05/11 03:28:47;;;;;;;7.97;5.70;;;17.90;85.40;;;;;;4941491;28;20031;-70
2022/05/11 03:31:13;;;;;;;6.75;5.00;;;17.90;85.40;;;;;;4956607;28;20116;-71
2022/05/11 03:36:24;;;;;;;5.78;5.10;;;17.90;85.60;;;;;;4955485;28;20047;-71
2022/05/11 03:38:50;;;;;;;6.68;5.28;;;17.90;85.30;;;;;;4953381;28;20034;-71
2022/05/11 03:41:16;;;;;;;7.05;5.05;;;17.90;85.20;;;;;;4959015;28;20131;-71
2022/05/11 03:43:42;;;;;;;6.20;5.05;;;17.90;85.50;;;;;;4955979;28;20026;-71
2022/05/11 03:46:08;;;;;;;7.75;5.05;;;17.90;85.60;;;;;;4957210;28;20086;-70
2022/05/11 03:48:34;;;;;;;5.82;5.03;;;17.90;85.50;;;;;;4959690;28;20034;-71
2022/05/11 03:51:00;;;;;;;8.23;5.70;;;17.90;85.90;;;;;;4958102;28;20034;-71
2022/05/11 03:53:26;;;;;;;6.65;5.97;;;17.90;86.30;;;;;;4956025;28;20027;-71
2022/05/11 03:55:52;;;;;;;5.93;5.13;;;17.90;86.90;;;;;;4956542;28;20053;-70
2022/05/11 03:58:18;;;;;;;6.60;5.90;;;17.90;87.80;;;;;;4958723;28;20523;-70
2022/05/11 04:00:44;;;;;;;6.35;5.40;;;17.90;88.70;;;;;;4955263;28;20037;-70
2022/05/11 04:03:10;;;;;;;6.75;5.97;;;17.90;89.20;;;;;;4958204;28;20039;-70
2022/05/11 04:05:36;;;;;;;8.60;5.97;;;17.80;89.70;;;;;;4957477;28;20495;-70
2022/05/11 04:08:01;;;;;;;6.47;5.55;;;17.80;90.00;;;;;;4952083;28;20151;-70
2022/05/11 04:10:27;;;;;;;12.32;8.00;;;17.80;90.30;;;;;;4954160;28;20133;-70
2022/05/11 04:12:53;;;;;;;9.35;6.50;;;17.80;90.40;;;;;;4962254;28;20109;-70
2022/05/11 04:15:19;;;;;;;7.18;6.28;;;17.80;90.60;;;;;;4939783;28;20737;-71
2022/05/11 04:17:45;;;;;;;9.23;6.57;;;17.80;91.00;;;;;;4957550;28;20597;-70
2022/05/11 04:20:14;;;;;;;7.50;6.55;;;17.70;90.80;;;;;;4957043;28;20145;-70
2022/05/11 04:22:40;;;;;;;9.73;7.13;;;17.70;90.90;;;;;;4957875;28;20380;-70
2022/05/11 04:25:07;;;;;;;9.73;7.15;;;17.70;90.90;;;;;;4949105;28;20077;-70
2022/05/11 04:27:34;;;;;;;13.27;7.47;;;17.70;91.10;;;;;;4950480;28;20031;-70
2022/05/11 04:30:01;;;;;;;11.23;7.90;;;17.70;91.20;;;;;;4957737;28;20039;-70
2022/05/11 04:32:27;;;;;;;9.38;7.88;;;17.70;91.30;;;;;;4957633;28;20039;-70
2022/05/11 04:34:53;;;;;;;8.10;7.25;;;17.70;91.40;;;;;;4958011;28;20424;-70
2022/05/11 04:37:19;;;;;;;9.15;7.35;;;17.70;91.40;;;;;;4955362;28;20035;-70
2022/05/11 04:39:44;;;;;;;11.18;7.75;;;17.70;91.50;;;;;;4941330;28;20475;-70
2022/05/11 04:42:11;;;;;;;9.85;7.90;;;17.70;91.60;;;;;;4957772;28;20031;-68
2022/05/11 04:44:37;;;;;;;9.02;8.13;;;17.70;91.50;;;;;;4951281;28;20158;-70
2022/05/11 04:47:10;;;;;;;9.10;7.90;;;17.80;91.60;;;;;;4957430;28;20133;-70
2022/05/11 04:49:36;;;;;;;10.40;7.78;;;17.80;91.60;;;;;;4955242;28;20035;-70
2022/05/11 04:52:09;;;;;;;10.40;8.57;;;17.80;91.70;;;;;;4956571;28;20106;-70
2022/05/11 04:54:40;;;;;;;11.88;8.75;;;17.80;91.80;;;;;;4943712;28;20061;-70
2022/05/11 04:57:06;;;;;;;11.38;9.02;;;17.80;91.70;;;;;;4949893;28;20066;-70
2022/05/11 04:59:33;;;;;;;9.02;7.95;;;17.80;91.70;;;;;;4949151;28;20487;-70
2022/05/11 05:02:00;;;;;;;11.07;8.20;;;17.80;91.90;;;;;;4950231;28;20126;-70
2022/05/11 05:04:27;;;;;;;11.10;8.38;;;17.80;92.00;;;;;;4958462;28;20792;-70
2022/05/11 05:06:53;;;;;;;11.73;8.48;;;17.80;92.00;;;;;;4954967;28;20066;-70
2022/05/11 05:09:19;;;;;;;16.80;9.52;;;17.80;91.90;;;;;;4956057;28;20427;-70
2022/05/11 05:11:44;;;;;;;9.00;8.07;;;17.80;92.00;;;;;;4956815;28;20684;-70
2022/05/11 05:14:11;;;;;;;10.23;8.85;;;17.90;92.00;;;;;;4959225;28;20034;-70
2022/05/11 05:16:37;;;;;;;11.63;8.90;;;17.90;91.90;;;;;;4950192;28;20030;-70
2022/05/11 05:19:03;;;;;;;9.60;7.85;;;18.00;91.80;;;;;;4951055;28;20046;-70
2022/05/11 05:21:31;;;;;;;10.40;8.45;;;18.00;91.70;;;;;;4958347;28;20842;-70
2022/05/11 05:23:57;;;;;;;11.40;9.10;;;18.00;91.50;;;;;;4954452;28;20491;-70
2022/05/11 05:26:23;;;;;;;9.55;8.48;;;18.00;91.50;;;;;;4951865;28;20039;-70
2022/05/11 05:31:33;;;;;;;12.75;8.77;;;18.00;91.60;;;;;;4956170;28;20038;-70
2022/05/11 05:34:02;;;;;;;11.00;8.48;;;18.10;91.70;;;;;;4964353;28;20043;-70
2022/05/11 05:36:33;;;;;;;11.25;8.27;;;18.10;91.70;;;;;;4962941;28;20048;-70
2022/05/11 05:38:59;;;;;;;11.80;8.18;;;18.20;91.80;;;;;;4962765;28;20043;-70
2022/05/11 05:41:28;;;;;;;11.90;9.23;;;18.20;91.70;;;;;;4963136;28;20502;-70
2022/05/11 05:43:54;;;;;;;8.73;7.63;;;18.30;91.60;;;;;;4954534;28;20038;-71
2022/05/11 05:46:20;;;;;;;9.88;7.15;;;18.40;91.50;;;;;;4945493;28;20042;-70
2022/05/11 05:48:46;;;;;;;9.57;7.32;;;18.50;91.50;;;;;;4962822;28;20034;-70
2022/05/11 05:51:15;;;;;;;10.27;8.02;;;18.60;91.50;;;;;;4964440;28;20050;-70
2022/05/11 05:53:41;;;;;;;9.73;7.63;;;18.70;91.50;;;;;;4962894;28;20670;-70
2022/05/11 05:56:09;;;;;;;9.13;8.07;;;18.80;91.40;;;;;;4962526;28;20050;-70
2022/05/11 05:58:35;;;;;;;9.82;8.82;;;18.70;91.40;;;;;;4958650;28;20038;-70
2022/05/11 06:01:02;;;;;;;11.57;9.10;;;18.70;91.60;;;;;;4957426;28;20094;-70
2022/05/11 06:03:31;;;;;;;9.40;8.20;;;18.70;91.80;;;;;;4959472;28;20043;-71
2022/05/11 06:05:56;;;;;;;10.65;9.55;;;18.70;92.00;;;;;;4946606;28;20085;-71
2022/05/11 06:08:23;;;;;;;11.73;8.90;;;18.80;92.10;;;;;;4963574;28;20122;-70
2022/05/11 06:10:51;;;;;;;12.35;9.13;;;18.70;92.10;;;;;;4962398;28;20091;-70
2022/05/11 06:13:20;;;;;;;12.30;9.88;;;18.70;92.00;;;;;;4959358;28;20073;-70
2022/05/11 06:15:46;;;;;;;11.80;9.30;;;18.70;92.00;;;;;;4961162;28;20030;-70
2022/05/11 06:18:12;;;;;;;12.68;9.45;;;18.80;92.00;;;;;;4954105;28;20035;-70
2022/05/11 06:20:38;;;;;;;13.73;10.18;;;18.80;92.10;;;;;;4966739;28;20026;-71
2022/05/11 06:23:05;;;;;;;17.75;9.77;;;18.90;92.10;;;;;;4958244;28;20114;-70
2022/05/11 06:25:33;;;;;;;13.68;9.52;;;19.10;91.80;;;;;;4965758;28;20031;-70
2022/05/11 06:27:59;;;;;;;11.48;8.82;;;19.40;91.30;;;;;;4961746;28;20923;-70
2022/05/11 06:30:27;;;;;;;9.98;7.93;;;19.80;90.70;;;;;;4960382;28;20070;-70
2022/05/11 06:32:53;;;;;;;10.65;8.77;;;20.00;88.70;;;;;;4964202;28;20030;-70
2022/05/11 06:35:19;;;;;;;10.80;7.47;;;20.10;86.80;;;;;;4954851;28;20127;-70
2022/05/11 06:37:45;;;;;;;10.80;6.93;;;20.30;85.00;;;;;;4963192;28;20030;-70
2022/05/11 06:40:13;;;;;;;8.68;6.20;;;20.70;84.10;;;;;;4959078;28;20105;-70
2022/05/11 06:42:39;;;;;;;7.50;6.25;;;21.00;82.20;;;;;;4961589;28;20038;-70
2022/05/11 06:45:06;;;;;;;8.70;6.32;;;21.50;79.80;;;;;;4962222;28;20698;-71
2022/05/11 06:47:33;;;;;;;7.72;6.45;;;21.80;79.50;;;;;;4962401;28;20061;-71
2022/05/11 06:49:59;;;;;;;6.38;5.75;;;22.10;74.70;;;;;;4956883;28;20055;-71
2022/05/11 06:52:25;;;;;;;8.93;6.07;;;22.20;73.40;;;;;;4948957;28;20499;-71
2022/05/11 07:00:21;;;;;;;7.78;5.47;;;22.50;72.40;;;;;;4956892;28;20413;-71
2022/05/11 07:02:47;;;;;;;9.18;5.10;;;22.60;73.20;;;;;;4958328;28;20039;-70
2022/05/11 07:05:13;;;;;;;7.32;5.50;;;23.00;70.50;;;;;;4961658;28;20392;-71
2022/05/11 07:07:39;;;;;;;6.82;5.70;;;23.30;67.60;;;;;;4958717;28;20064;-70
2022/05/11 07:10:06;;;;;;;6.57;4.93;;;23.20;68.00;;;;;;4956858;28;20871;-70
2022/05/11 07:12:35;;;;;;;10.05;5.30;;;23.10;67.50;;;;;;4958645;28;20038;-71
2022/05/11 07:15:05;;;;;;;5.68;5.07;;;23.20;67.90;;;;;;4954055;28;20023;-70
2022/05/11 07:17:35;;;;;;;6.38;4.45;;;23.10;66.40;;;;;;4957833;28;20533;-70
2022/05/11 07:20:04;;;;;;;9.00;4.80;;;22.90;67.00;;;;;;4955543;28;20083;-70
2022/05/11 07:22:30;;;;;;;8.48;5.22;;;23.00;65.80;;;;;;4954672;28;20156;-70
2022/05/11 07:24:56;;;;;;;6.93;4.80;;;23.00;66.10;;;;;;4957151;28;20027;-70
2022/05/11 07:27:22;;;;;;;6.03;5.03;;;22.80;65.20;;;;;;4955371;28;20046;-70
2022/05/11 07:29:51;;;;;;;6.43;5.00;;;22.70;63.90;;;;;;4958983;28;20022;-70
2022/05/11 07:32:17;;;;;;;7.93;4.40;;;22.70;64.20;;;;;;4952616;28;20470;-70
2022/05/11 07:34:43;;;;;;;7.72;4.50;;;22.90;64.70;;;;;;4951342;28;20492;-71
2022/05/11 07:37:09;;;;;;;7.15;4.40;;;22.80;63.10;;;;;;4952030;28;20037;-70
2022/05/11 07:39:35;;;;;;;7.90;4.50;;;22.60;63.00;;;;;;4958461;28;20030;-71
2022/05/11 07:42:01;;;;;;;8.18;4.63;;;22.50;64.70;;;;;;4955198;28;20034;-71
2022/05/11 07:44:27;;;;;;;4.45;3.88;;;22.80;62.50;;;;;;4954483;28;20499;-71
2022/05/11 07:46:53;;;;;;;5.97;4.63;;;23.20;62.30;;;;;;4953485;28;20041;-71
2022/05/11 07:49:19;;;;;;;5.95;4.47;;;23.20;61.80;;;;;;4956356;28;20038;-70
2022/05/11 07:51:46;;;;;;;7.05;4.40;;;23.40;62.10;;;;;;4954229;28;20023;-70
2022/05/11 07:54:13;;;;;;;9.75;4.72;;;23.90;61.60;;;;;;4946386;28;20142;-70
2022/05/11 08:02:08;;;;;;;7.25;4.38;;;25.10;57.50;;;;;;4958580;28;20043;-71
2022/05/11 08:04:35;;;;;;;8.88;4.85;;;25.00;55.70;;;;;;4955690;28;20026;-71
2022/05/11 08:07:02;;;;;;;7.30;4.07;;;24.60;56.70;;;;;;4954959;28;20690;-70
2022/05/11 08:09:28;;;;;;;10.70;4.20;;;24.60;58.10;;;;;;4954731;28;20455;-70
2022/05/11 08:11:55;;;;;;;6.22;4.32;;;24.70;56.30;;;;;;4957553;28;20093;-70
2022/05/11 08:14:23;;;;;;;7.65;4.35;;;24.80;55.10;;;;;;4960252;28;20030;-69
2022/05/11 08:16:52;;;;;;;5.82;4.13;;;24.50;55.00;;;;;;4952465;28;20042;-69
2022/05/11 08:19:26;;;;;;;5.47;4.30;;;24.10;56.20;;;;;;4957932;28;20053;-69
2022/05/11 08:21:53;;;;;;;7.18;4.43;;;23.90;57.20;;;;;;4956647;28;20057;-69
2022/05/11 08:24:19;;;;;;;5.07;4.20;;;24.10;58.40;;;;;;4952575;28;20100;-69
2022/05/11 08:26:51;;;;;;;5.55;3.75;;;24.50;55.80;;;;;;4955232;28;20034;-69
2022/05/11 08:34:51;;;;;;;6.13;3.95;;;24.10;54.60;;;;;;4923723;28;20073;-69
2022/05/11 08:37:17;;;;;;;8.45;4.30;;;24.00;55.30;;;;;;4958883;28;20035;-69
2022/05/11 08:39:43;;;;;;;5.47;4.35;;;24.40;54.50;;;;;;4959132;28;20038;-73
2022/05/11 08:42:11;;;;;;;7.70;4.80;;;24.60;52.90;;;;;;4952447;28;20038;-69
2022/05/11 08:44:43;;;;;;;8.15;4.43;;;24.60;53.50;;;;;;4938898;28;20030;-69
2022/05/11 08:47:21;;;;;;;10.32;4.78;;;24.50;54.20;;;;;;4953386;28;20050;-70
2022/05/11 08:49:54;;;;;;;4.97;4.10;;;24.80;53.40;;;;;;4957809;28;20787;-70
2022/05/11 08:53:08;;;;;;;8.55;4.50;;;25.20;53.60;;;;;;4956576;28;20026;-71
2022/05/11 08:55:51;;;;;;;6.15;4.82;;;25.70;52.50;;;;;;4930682;28;20039;-70
2022/05/11 08:58:28;;;;;;;6.22;4.65;;;26.10;51.80;;;;;;4949729;28;20031;-71
2022/05/11 09:00:56;;;;;;;6.47;5.10;;;26.20;51.30;;;;;;4957217;28;20050;-70
2022/05/11 09:03:34;;;;;;;6.60;4.97;;;26.00;51.60;;;;;;4954182;28;20501;-70
2022/05/11 09:06:02;;;;;;;6.22;5.30;;;25.80;52.60;;;;;;4955250;28;20062;-70
2022/05/11 09:08:34;;;;;;;6.53;5.32;;;25.90;53.80;;;;;;4951449;28;20843;-70
2022/05/11 09:11:00;;;;;;;9.45;4.68;;;26.10;51.50;;;;;;4946429;28;20141;-71
2022/05/11 09:13:27;;;;;;;12.02;5.20;;;26.50;50.80;;;;;;4956373;28;20156;-70
2022/05/11 09:15:53;;;;;;;10.63;5.90;;;26.60;50.40;;;;;;4953473;28;20065;-70
2022/05/11 09:18:21;;;;;;;9.60;5.38;;;26.50;49.70;;;;;;4956702;28;20495;-71
2022/05/11 09:20:50;;;;;;;5.50;4.50;;;26.50;51.00;;;;;;4955598;28;20037;-69
2022/05/11 09:23:31;;;;;;;7.07;4.70;;;26.50;50.30;;;;;;4957352;28;20906;-71
2022/05/11 09:26:01;;;;;;;7.13;5.32;;;26.40;50.50;;;;;;4951302;28;20038;-70
2022/05/11 09:28:30;;;;;;;7.60;4.38;;;26.50;51.40;;;;;;4952320;28;20923;-69
2022/05/11 09:31:06;;;;;;;6.97;4.82;;;26.80;50.50;;;;;;4955021;28;20023;-70
2022/05/11 09:33:33;;;;;;;8.38;5.15;;;26.90;49.20;;;;;;4957586;28;20105;-70
2022/05/11 09:36:02;;;;;;;6.82;5.15;;;26.80;50.00;;;;;;4958884;28;20039;-70
2022/05/11 09:38:33;;;;;;;6.65;5.45;;;26.80;51.90;;;;;;4956146;28;20775;-70
2022/05/11 09:41:07;;;;;;;6.40;5.10;;;26.80;49.20;;;;;;4956299;28;20038;-70
2022/05/11 09:43:39;;;;;;;5.93;4.78;;;26.70;50.80;;;;;;4955592;28;20050;-70
2022/05/11 09:46:28;;;;;;;8.15;5.25;;;26.70;49.90;;;;;;4955864;28;20074;-70
2022/05/11 09:48:55;;;;;;;6.60;4.30;;;26.50;50.90;;;;;;4956410;28;20090;-70
2022/05/11 09:51:46;;;;;;;6.47;4.35;;;26.40;51.90;;;;;;4956617;28;20053;-70
2022/05/11 09:54:18;;;;;;;6.82;5.00;;;26.20;51.30;;;;;;4944392;28;20042;-71
2022/05/11 09:57:04;;;;;;;5.18;4.20;;;26.40;52.50;;;;;;4935778;28;20035;-70
2022/05/11 10:00:01;;;;;;;6.85;4.47;;;27.00;49.80;;;;;;4940634;28;20508;-72
2022/05/11 10:02:36;;;;;;;4.95;4.15;;;28.20;46.30;;;;;;4896783;28;20068;-71
2022/05/11 10:05:26;;;;;;;4.93;3.72;;;28.40;45.80;;;;;;4952082;28;20482;-71
2022/05/11 10:08:20;;;;;;;3.42;3.13;;;28.30;45.30;;;;;;4942093;28;20062;-71
2022/05/11 10:10:55;;;;;;;6.22;3.30;;;27.90;46.20;;;;;;4950851;28;20048;-70
2022/05/11 10:13:39;;;;;;;4.93;3.30;;;28.00;46.80;;;;;;4953023;28;20028;-71
2022/05/11 10:22:36;;;;;;;5.28;2.70;;;28.40;44.70;;;;;;4955528;28;20178;-73
2022/05/11 10:25:22;;;;;;;5.53;2.65;;;28.60;44.00;;;;;;4926020;28;20039;-72
2022/05/11 10:27:58;;;;;;;4.30;3.05;;;28.80;44.40;;;;;;4945420;28;20500;-74
2022/05/11 10:30:50;;;;;;;4.40;2.63;;;29.00;42.70;;;;;;4956461;28;20045;-74
2022/05/11 10:33:42;;;;;;;5.35;3.33;;;29.40;43.80;;;;;;4954039;28;20062;-74
2022/05/11 10:36:24;;;;;;;4.65;2.90;;;29.70;41.80;;;;;;4935518;28;20045;-74
2022/05/11 10:39:00;;;;;;;4.75;2.90;;;29.90;41.30;;;;;;4951378;28;20066;-74
2022/05/11 10:41:42;;;;;;;4.53;3.00;;;29.90;41.30;;;;;;4952606;28;20062;-74
2022/05/11 10:44:43;;;;;;;3.13;2.78;;;29.80;41.90;;;;;;4950582;28;20058;-74
2022/05/11 10:47:45;;;;;;;4.47;2.90;;;29.50;42.30;;;;;;4877700;29;20036;-74
2022/05/11 10:50:42;;;;;;;11.90;2.92;;;29.20;42.90;;;;;;4955562;28;20042;-74
2022/05/11 10:53:39;;;;;;;6.70;2.95;;;28.60;41.60;;;;;;4952368;28;20035;-73
2022/05/11 10:56:29;;;;;;;6.28;3.00;;;29.10;41.00;;;;;;4957663;28;20110;-74
2022/05/11 10:59:10;;;;;;;11.13;2.67;;;29.00;44.40;;;;;;4940350;28;20050;-73
2022/05/11 11:02:02;;;;;;;7.10;3.10;;;29.70;42.40;;;;;;4932746;28;20467;-73
2022/05/11 11:04:42;;;;;;;5.55;2.88;;;30.20;41.50;;;;;;4956968;28;20930;-71
2022/05/11 11:07:32;;;;;;;5.80;3.20;;;29.50;41.30;;;;;;4954272;28;20554;-73
2022/05/11 11:10:34;;;;;;;4.10;2.70;;;29.30;42.00;;;;;;4955728;28;20734;-72
2022/05/11 11:13:20;;;;;;;3.00;2.70;;;29.60;41.50;;;;;;4957198;28;20080;-72
2022/05/11 11:15:46;;;;;;;3.30;2.72;;;29.40;41.00;;;;;;4939510;28;20019;-71
2022/05/11 11:18:16;;;;;;;5.43;2.70;;;29.10;41.50;;;;;;4947797;28;20066;-72
2022/05/11 11:20:46;;;;;;;5.43;2.65;;;29.00;42.50;;;;;;4954706;28;20026;-71
2022/05/11 11:23:33;;;;;;;7.82;2.30;;;28.80;40.00;;;;;;4952072;28;20073;-71
2022/05/11 11:26:02;;;;;;;4.93;2.70;;;28.50;41.40;;;;;;4956270;28;20046;-70
2022/05/11 11:28:48;;;;;;;6.38;2.67;;;28.90;42.10;;;;;;4957422;28;20038;-71
2022/05/11 11:31:15;;;;;;;;;;;29.40;40.90;;;;;;4917316;28;20051;-72
2022/05/11 11:33:56;;;;;;;5.60;2.65;;;29.60;41.30;;;;;;4942872;28;20815;-72
2022/05/11 11:36:28;;;;;;;8.52;2.60;;;29.30;39.50;;;;;;4932141;28;20535;-73
2022/05/11 11:38:58;;;;;;;3.83;2.25;;;29.30;40.20;;;;;;4953455;28;20039;-72
2022/05/11 11:41:31;;;;;;;10.73;3.10;;;29.50;39.30;;;;;;4957462;28;20117;-73
2022/05/11 11:43:58;;;;;;;4.70;2.65;;;29.30;39.80;;;;;;4948474;28;20586;-73
2022/05/11 11:46:32;;;;;;;3.10;2.50;;;29.20;39.90;;;;;;4961298;28;20046;-72
2022/05/11 11:49:08;;;;;;;5.70;2.22;;;29.40;40.50;;;;;;4932464;28;20031;-73
2022/05/11 11:52:01;;;;;;;6.70;2.58;;;29.40;38.80;;;;;;4949324;28;20149;-72
2022/05/11 11:54:34;;;;;;;9.38;2.30;;;29.20;38.20;;;;;;4957406;28;20086;-73
2022/05/11 11:57:02;;;;;;;3.92;2.30;;;29.10;38.70;;;;;;4956015;28;20038;-72
2022/05/11 11:59:30;;;;;;;5.65;2.17;;;29.30;38.70;;;;;;4958170;28;20070;-74
2022/05/11 12:02:10;;;;;;;3.90;2.47;;;29.50;39.30;;;;;;4954596;28;20794;-75
2022/05/11 12:04:46;;;;;;;4.63;2.65;;;29.70;39.10;;;;;;4949877;28;20026;-75
2022/05/11 12:16:02;;;;;;;3.42;2.50;;;29.40;38.60;;;;;;4953886;28;20129;-78
2022/05/11 12:18:37;;;;;;;4.50;2.10;;;29.60;39.60;;;;;;4956644;28;20090;-73
2022/05/11 12:21:25;;;;;;;2.85;2.10;;;30.00;39.50;;;;;;4949183;28;20038;-73
2022/05/11 12:23:51;;;;;;;4.65;2.47;;;30.40;36.90;;;;;;4948986;28;20157;-74
2022/05/11 12:26:24;;;;;;;4.32;2.85;;;30.50;37.50;;;;;;4954373;28;20764;-74
2022/05/11 12:28:50;;;;;;;5.43;2.50;;;30.20;36.70;;;;;;4954118;28;20038;-74
2022/05/11 12:31:32;;;;;;;5.25;2.22;;;29.50;37.80;;;;;;4957998;28;20038;-75
2022/05/11 12:33:57;;;;;;;2.83;1.92;;;29.30;38.60;;;;;;4948807;28;20547;-73
2022/05/11 12:36:34;;;;;;;4.60;2.17;;;29.40;39.60;;;;;;4945984;28;20050;-74
2022/05/11 12:39:01;;;;;;;3.33;2.53;;;29.70;40.10;;;;;;4957779;28;20133;-76
2022/05/11 12:41:29;;;;;;;4.15;2.33;;;29.80;39.50;;;;;;4953989;28;20041;-74
2022/05/11 12:43:58;;;;;;;4.70;2.75;;;29.90;39.40;;;;;;4956971;28;20030;-73
2022/05/11 12:46:25;;;;;;;5.80;2.83;;;30.10;39.30;;;;;;4958197;28;20100;-76
2022/05/11 12:48:59;;;;;;;6.65;2.25;;;30.10;38.30;;;;;;4957362;28;20035;-82
2022/05/11 12:51:39;;;;;;;5.73;1.90;;;30.30;37.80;;;;;;4955524;28;20035;-77
2022/05/11 12:54:09;;;;;;;7.05;2.38;;;30.60;35.90;;;;;;4957474;28;20030;-78
2022/05/11 12:56:41;;;;;;;7.32;2.20;;;30.60;36.70;;;;;;4953303;28;20561;-78
2022/05/11 12:59:25;;;;;;;2.90;2.15;;;30.40;36.30;;;;;;4956620;28;20074;-77
2022/05/11 13:02:11;;;;;;;3.75;2.00;;;30.00;36.50;;;;;;4957915;28;20026;-79
2022/05/11 13:04:47;;;;;;;6.63;2.60;;;29.30;37.30;;;;;;4958427;28;20041;-79
2022/05/11 13:07:13;;;;;;;2.97;2.00;;;29.10;37.40;;;;;;4948751;28;20110;-74
2022/05/11 13:09:43;;;;;;;2.60;2.40;;;29.30;38.20;;;;;;4954892;28;21054;-74
2022/05/11 13:12:12;;;;;;;6.07;2.05;;;29.40;38.30;;;;;;4954488;28;20034;-74
2022/05/11 13:14:48;;;;;;;8.13;2.47;;;29.50;37.60;;;;;;4952182;28;20023;-74
2022/05/11 13:17:46;;;;;;;7.63;2.20;;;29.60;37.20;;;;;;4950119;28;20753;-72
2022/05/11 13:20:18;;;;;;;4.45;2.10;;;29.60;36.50;;;;;;4949013;28;20050;-72
2022/05/11 13:22:51;;;;;;;9.13;2.10;;;29.50;37.60;;;;;;4952468;28;20380;-73
2022/05/11 13:25:46;;;;;;;5.72;2.25;;;29.30;37.30;;;;;;4931265;28;20043;-74
2022/05/11 13:28:21;;;;;;;8.10;2.40;;;29.40;37.20;;;;;;4951647;28;20038;-73
2022/05/11 13:30:48;;;;;;;35.00;4.00;;;29.10;38.20;;;;;;4950427;28;20031;-75
2022/05/11 13:33:35;;;;;;;4.40;2.17;;;29.00;37.60;;;;;;4949899;28;20071;-73
2022/05/11 13:36:22;;;;;;;4.15;1.90;;;28.80;38.40;;;;;;4946213;28;20658;-72
2022/05/11 13:38:49;;;;;;;4.38;2.45;;;28.80;38.80;;;;;;4951926;28;20031;-73
2022/05/11 13:41:21;;;;;;;7.47;2.40;;;28.80;38.50;;;;;;4949055;28;20875;-72
2022/05/11 13:43:56;;;;;;;14.00;3.05;;;28.90;38.60;;;;;;4953178;28;20041;-74
2022/05/11 13:49:34;;;;;;;5.25;2.65;;;28.70;38.20;;;;;;4950211;28;20035;-73
2022/05/11 13:52:05;;;;;;;5.07;2.15;;;28.60;39.10;;;;;;4946077;28;20924;-72